createdAt,value
2018-09-02T00:02:25.716Z,15.81
2018-09-02T00:04:55.223Z,15.77
2018-09-02T00:07:24.072Z,15.82
2018-09-02T00:09:53.776Z,15.85
2018-09-02T00:12:22.646Z,15.84
2018-09-02T00:14:51.305Z,15.86
2018-09-02T00:17:25.873Z,15.86
2018-09-02T00:19:55.014Z,15.79
2018-09-02T00:22:23.705Z,15.82
2018-09-02T00:24:52.397Z,15.83
2018-09-02T00:27:21.117Z,15.76
2018-09-02T00:29:49.752Z,15.79
2018-09-02T00:32:19.660Z,15.84
2018-09-02T00:34:48.377Z,15.80
2018-09-02T00:37:17.277Z,15.84
2018-09-02T00:39:46.175Z,15.87
2018-09-02T00:42:14.816Z,15.91
2018-09-02T00:44:43.695Z,15.86
2018-09-02T00:47:14.282Z,15.86
2018-09-02T00:49:43.116Z,15.75
2018-09-02T00:52:20.672Z,15.79
2018-09-02T00:54:59.585Z,15.73
2018-09-02T00:57:37.452Z,15.74
2018-09-02T01:00:14.307Z,15.73
2018-09-02T01:02:51.604Z,15.76
2018-09-02T01:05:32.212Z,15.69
2018-09-02T01:08:09.444Z,15.75
2018-09-02T01:10:52.775Z,15.72
2018-09-02T01:13:35.412Z,15.77
2018-09-02T01:16:14.626Z,15.80
2018-09-02T01:18:53.969Z,15.81
2018-09-02T01:21:31.833Z,15.79
2018-09-02T01:24:09.221Z,15.71
2018-09-02T01:26:49.471Z,15.77
2018-09-02T01:29:26.871Z,15.83
2018-09-02T01:32:04.387Z,15.89
2018-09-02T01:34:41.611Z,15.91
2018-09-02T01:37:21.553Z,15.79
2018-09-02T01:40:00.900Z,15.82
2018-09-02T01:42:39.292Z,15.84
2018-09-02T01:45:16.342Z,15.83
2018-09-02T01:47:55.028Z,15.80
2018-09-02T01:50:32.107Z,15.83
2018-09-02T01:53:13.843Z,15.85
2018-09-02T01:55:52.062Z,15.88
2018-09-02T01:58:29.342Z,15.89
2018-09-02T02:01:06.593Z,15.89
2018-09-02T02:03:46.226Z,15.90
2018-09-02T02:06:23.417Z,15.89
2018-09-02T02:09:01.022Z,15.90
2018-09-02T02:11:38.384Z,15.91
2018-09-02T02:14:15.961Z,15.92
2018-09-02T02:16:52.861Z,15.95
2018-09-02T02:19:30.709Z,15.86
2018-09-02T02:22:08.954Z,15.77
2018-09-02T02:24:45.673Z,15.78
2018-09-02T02:27:17.275Z,15.79
2018-09-02T02:29:46.371Z,15.77
2018-09-02T02:32:15.981Z,15.73
2018-09-02T02:34:44.704Z,15.61
2018-09-02T02:37:14.195Z,15.61
2018-09-02T02:39:42.768Z,15.63
2018-09-02T02:42:11.722Z,15.65
2018-09-02T02:50:22.044Z,15.66
2018-09-02T02:52:55.985Z,15.66
2018-09-02T02:55:24.656Z,15.69
2018-09-02T02:57:53.349Z,15.74
2018-09-02T03:00:22.005Z,15.72
2018-09-02T03:02:50.713Z,15.73
2018-09-02T03:05:19.620Z,15.73
2018-09-02T03:07:48.259Z,15.74
2018-09-02T03:10:17.170Z,15.73
2018-09-02T03:12:45.850Z,15.71
2018-09-02T03:15:14.674Z,15.71
2018-09-02T03:17:44.023Z,15.73
2018-09-02T03:20:12.724Z,15.73
2018-09-02T03:22:42.001Z,15.70
2018-09-02T03:25:10.968Z,15.72
2018-09-02T03:27:39.796Z,15.74
2018-09-02T03:30:08.376Z,15.77
2018-09-02T03:32:37.164Z,15.73
2018-09-02T03:35:06.075Z,15.69
2018-09-02T03:37:34.940Z,15.64
2018-09-02T03:40:03.661Z,15.55
2018-09-02T03:42:32.296Z,15.46
2018-09-02T03:45:02.305Z,15.47
2018-09-02T03:47:30.847Z,15.49
2018-09-02T03:49:59.612Z,15.50
2018-09-02T03:52:28.484Z,15.44
2018-09-02T03:54:57.393Z,15.39
2018-09-02T03:57:26.220Z,15.39
2018-09-02T03:59:55.136Z,15.42
2018-09-02T04:02:25.628Z,15.40
2018-09-02T04:04:54.358Z,15.43
2018-09-02T04:07:23.675Z,15.41
2018-09-02T04:09:52.348Z,15.39
2018-09-02T04:12:21.052Z,15.46
2018-09-02T04:14:49.695Z,15.46
2018-09-02T04:17:18.793Z,15.45
2018-09-02T04:19:47.520Z,15.49
2018-09-02T04:22:17.591Z,15.51
2018-09-02T04:24:46.553Z,15.53
2018-09-02T04:27:15.180Z,15.52
2018-09-02T04:29:43.959Z,15.50
2018-09-02T04:32:12.532Z,15.47
2018-09-02T04:34:41.095Z,15.48
2018-09-02T04:37:11.188Z,15.43
2018-09-02T04:39:39.857Z,15.32
2018-09-02T04:42:08.721Z,15.19
2018-09-02T04:44:37.627Z,15.15
2018-09-02T04:47:06.480Z,15.17
2018-09-02T04:49:35.277Z,15.12
2018-09-02T04:52:03.876Z,15.15
2018-09-02T04:54:33.241Z,14.99
2018-09-02T04:57:02.533Z,14.93
2018-09-02T04:59:31.141Z,15.00
2018-09-02T05:01:59.832Z,15.11
2018-09-02T05:04:28.571Z,15.13
2018-09-02T05:06:57.179Z,15.05
2018-09-02T05:09:25.912Z,15.14
2018-09-02T05:11:54.568Z,15.13
2018-09-02T05:14:23.257Z,15.12
2018-09-02T05:16:52.169Z,15.20
2018-09-02T05:19:20.757Z,15.23
2018-09-02T05:21:49.296Z,15.21
2018-09-02T05:24:18.955Z,15.25
2018-09-02T05:26:47.506Z,15.31
2018-09-02T05:29:16.382Z,15.34
2018-09-02T05:31:46.905Z,15.39
2018-09-02T05:34:15.648Z,15.41
2018-09-02T05:36:44.333Z,15.40
2018-09-02T05:39:13.322Z,15.44
2018-09-02T05:41:42.068Z,15.43
2018-09-02T05:44:10.848Z,15.43
2018-09-02T05:46:40.551Z,15.43
2018-09-02T05:49:10.395Z,15.29
2018-09-02T05:51:39.247Z,15.27
2018-09-02T05:54:07.960Z,15.24
2018-09-02T05:56:36.603Z,15.23
2018-09-02T05:59:05.908Z,15.23
2018-09-02T06:01:34.623Z,15.14
2018-09-02T06:04:03.480Z,15.24
2018-09-02T06:06:32.211Z,15.15
2018-09-02T06:09:01.268Z,15.16
2018-09-02T06:11:29.949Z,15.18
2018-09-02T06:13:58.643Z,15.19
2018-09-02T06:16:27.288Z,15.20
2018-09-02T06:18:56.024Z,15.29
2018-09-02T06:21:25.048Z,15.37
2018-09-02T06:23:54.056Z,15.40
2018-09-02T06:26:22.700Z,15.40
2018-09-02T06:28:51.608Z,15.24
2018-09-02T06:31:20.624Z,15.31
2018-09-02T06:33:49.476Z,15.34
2018-09-02T06:36:18.677Z,15.39
2018-09-02T06:38:47.488Z,15.46
2018-09-02T06:41:16.678Z,15.34
2018-09-02T06:43:45.301Z,15.31
2018-09-02T06:46:14.008Z,15.29
2018-09-02T06:48:42.592Z,15.17
2018-09-02T06:51:11.596Z,15.15
2018-09-02T06:53:40.108Z,15.23
2018-09-02T06:56:08.616Z,15.35
2018-09-02T06:58:37.583Z,15.37
2018-09-02T07:01:06.500Z,15.49
2018-09-02T07:03:35.171Z,15.47
2018-09-02T07:06:03.960Z,15.53
2018-09-02T07:08:32.795Z,15.65
2018-09-02T07:11:02.609Z,15.75
2018-09-02T07:13:31.389Z,15.80
2018-09-02T07:16:00.084Z,15.97
2018-09-02T07:21:32.420Z,16.10
2018-09-02T07:24:01.080Z,16.20
2018-09-02T07:26:30.561Z,16.20
2018-09-02T07:28:59.244Z,16.16
2018-09-02T07:31:28.019Z,16.17
2018-09-02T07:33:56.662Z,16.19
2018-09-02T07:36:25.302Z,16.09
2018-09-02T07:38:54.045Z,16.05
2018-09-02T07:41:22.662Z,16.06
2018-09-02T07:43:51.529Z,16.07
2018-09-02T07:46:20.863Z,16.05
2018-09-02T07:48:50.042Z,16.06
2018-09-02T07:51:18.907Z,16.13
2018-09-02T07:53:47.716Z,16.09
2018-09-02T07:56:18.081Z,16.08
2018-09-02T07:58:47.147Z,16.12
2018-09-02T08:01:15.887Z,16.15
2018-09-02T08:03:45.740Z,16.12
2018-09-02T08:06:14.444Z,16.08
2018-09-02T08:08:43.115Z,16.07
2018-09-02T08:11:12.692Z,16.13
2018-09-02T08:13:41.298Z,16.18
2018-09-02T08:16:10.051Z,16.22
2018-09-02T08:18:38.631Z,16.23
2018-09-02T08:21:07.513Z,16.15
2018-09-02T08:23:36.709Z,16.16
2018-09-02T08:26:05.751Z,16.14
2018-09-02T08:28:34.552Z,16.14
2018-09-02T08:31:03.373Z,16.17
2018-09-02T08:33:32.807Z,16.19
2018-09-02T08:36:01.505Z,16.23
2018-09-02T08:38:30.412Z,16.25
2018-09-02T08:41:00.531Z,16.30
2018-09-02T08:43:29.423Z,16.30
2018-09-02T08:45:58.711Z,16.39
2018-09-02T08:48:27.394Z,16.52
2018-09-02T08:50:56.080Z,16.68
2018-09-02T08:53:24.696Z,16.76
2018-09-02T08:55:54.162Z,16.74
2018-09-02T08:58:22.901Z,16.81
2018-09-02T09:00:51.505Z,16.89
2018-09-02T09:03:20.779Z,16.81
2018-09-02T09:05:49.607Z,16.61
2018-09-02T09:08:19.868Z,16.24
2018-09-02T09:10:48.410Z,16.04
2018-09-02T09:13:17.359Z,16.07
2018-09-02T09:15:45.971Z,16.02
2018-09-02T09:18:15.419Z,16.11
2018-09-02T09:20:45.858Z,16.34
2018-09-02T09:23:14.516Z,16.52
2018-09-02T09:25:44.055Z,16.55
2018-09-02T09:28:12.763Z,16.75
2018-09-02T09:30:41.573Z,16.80
2018-09-02T09:33:10.163Z,16.89
2018-09-02T09:35:38.753Z,16.99
2018-09-02T09:38:07.292Z,17.04
2018-09-02T09:40:35.887Z,16.98
2018-09-02T09:43:04.511Z,16.87
2018-09-02T09:45:33.084Z,16.92
2018-09-02T09:48:01.637Z,16.94
2018-09-02T09:50:30.538Z,17.00
2018-09-02T09:53:02.856Z,17.01
2018-09-02T09:55:33.153Z,17.09
2018-09-02T09:58:02.204Z,17.17
2018-09-02T10:00:32.311Z,17.19
2018-09-02T10:03:07.603Z,17.18
2018-09-02T10:05:37.207Z,17.27
2018-09-02T10:08:05.903Z,17.37
2018-09-02T10:10:35.420Z,17.41
2018-09-02T10:13:04.980Z,17.47
2018-09-02T10:15:33.780Z,17.50
2018-09-02T10:18:02.582Z,17.58
2018-09-02T10:20:32.800Z,17.65
2018-09-02T10:23:02.511Z,17.72
2018-09-02T10:25:31.675Z,17.75
2018-09-02T10:28:02.152Z,17.72
2018-09-02T10:30:31.572Z,17.68
2018-09-02T10:33:05.648Z,17.69
2018-09-02T10:35:34.431Z,17.74
2018-09-02T10:38:15.547Z,17.76
2018-09-02T10:40:47.292Z,17.77
2018-09-02T10:43:17.431Z,17.81
2018-09-02T10:45:47.390Z,17.85
2018-09-02T10:48:22.965Z,17.87
2018-09-02T10:50:52.552Z,17.87
2018-09-02T10:53:25.066Z,17.89
2018-09-02T10:55:54.841Z,17.87
2018-09-02T10:58:25.889Z,17.85
2018-09-02T11:00:54.730Z,17.80
2018-09-02T11:03:23.930Z,17.59
2018-09-02T11:05:52.859Z,17.58
2018-09-02T11:08:22.324Z,17.61
2018-09-02T11:10:50.936Z,17.53
2018-09-02T11:13:19.744Z,17.51
2018-09-02T11:15:48.672Z,17.56
2018-09-02T11:18:17.356Z,17.63
2018-09-02T11:20:46.231Z,17.71
2018-09-02T11:23:14.834Z,17.82
2018-09-02T11:25:43.698Z,17.98
2018-09-02T11:28:12.411Z,18.10
2018-09-02T11:30:41.474Z,18.19
2018-09-02T11:33:10.273Z,18.39
2018-09-02T11:35:39.968Z,18.52
2018-09-02T11:38:08.565Z,18.58
2018-09-02T11:40:37.175Z,18.56
2018-09-02T11:43:06.163Z,18.53
2018-09-02T11:45:34.724Z,18.25
2018-09-02T11:48:03.295Z,18.29
2018-09-02T11:50:32.012Z,18.40
2018-09-02T11:53:01.405Z,18.50
2018-09-02T11:55:30.021Z,18.62
2018-09-02T11:57:58.642Z,18.77
2018-09-02T12:00:27.288Z,19.07
2018-09-02T12:02:56.748Z,19.61
2018-09-02T12:05:26.172Z,19.82
2018-09-02T12:08:01.831Z,19.95
2018-09-02T12:10:42.252Z,19.88
2018-09-02T12:13:11.099Z,19.89
2018-09-02T12:15:39.934Z,19.70
2018-09-02T12:18:08.747Z,19.74
2018-09-02T12:20:37.944Z,19.65
2018-09-02T12:23:06.615Z,19.44
2018-09-02T12:25:35.220Z,19.34
2018-09-02T12:28:03.785Z,19.33
2018-09-02T12:30:32.354Z,19.40
2018-09-02T12:33:00.909Z,19.35
2018-09-02T12:35:29.448Z,19.16
2018-09-02T12:37:58.017Z,19.11
2018-09-02T12:40:26.551Z,19.16
2018-09-02T12:42:55.256Z,19.01
2018-09-02T12:45:23.950Z,19.07
2018-09-02T12:47:53.566Z,19.13
2018-09-02T12:50:21.991Z,19.27
2018-09-02T12:52:50.527Z,19.34
2018-09-02T12:55:19.322Z,19.34
2018-09-02T12:57:47.792Z,19.30
2018-09-02T13:00:16.340Z,19.31
2018-09-02T13:02:44.910Z,19.33
2018-09-02T13:05:13.576Z,19.40
2018-09-02T13:07:42.204Z,19.39
2018-09-02T13:10:10.731Z,19.35
2018-09-02T13:12:39.360Z,19.28
2018-09-02T13:15:07.886Z,19.25
2018-09-02T13:17:36.431Z,19.16
2018-09-02T13:20:05.091Z,19.06
2018-09-02T13:22:33.757Z,18.89
2018-09-02T13:25:02.417Z,18.93
2018-09-02T13:27:31.042Z,18.97
2018-09-02T13:29:59.601Z,19.01
2018-09-02T13:32:28.163Z,19.03
2018-09-02T13:34:56.729Z,19.01
2018-09-02T13:37:25.289Z,18.86
2018-09-02T13:39:53.919Z,18.81
2018-09-02T13:42:22.537Z,18.74
2018-09-02T13:44:51.125Z,18.78
2018-09-02T13:47:19.823Z,18.84
2018-09-02T13:49:48.415Z,18.90
2018-09-02T13:52:16.963Z,18.92
2018-09-02T13:54:45.563Z,18.94
2018-09-02T13:57:14.095Z,18.92
2018-09-02T13:59:42.786Z,18.97
2018-09-02T14:02:11.308Z,18.98
2018-09-02T14:04:39.951Z,19.01
2018-09-02T14:07:08.693Z,19.05
2018-09-02T14:09:37.294Z,19.04
2018-09-02T14:12:06.035Z,19.06
2018-09-02T14:14:34.609Z,19.07
2018-09-02T14:17:03.249Z,19.15
2018-09-02T14:19:31.844Z,19.28
2018-09-02T14:22:00.443Z,19.44
2018-09-02T14:24:28.993Z,19.56
2018-09-02T14:26:57.673Z,19.51
2018-09-02T14:29:26.262Z,19.48
2018-09-02T14:31:54.808Z,19.53
2018-09-02T14:34:23.475Z,19.43
2018-09-02T14:36:52.038Z,19.45
2018-09-02T14:39:20.576Z,19.41
2018-09-02T14:41:49.196Z,19.35
2018-09-02T14:44:17.805Z,19.19
2018-09-02T14:46:46.374Z,19.17
2018-09-02T14:49:14.964Z,19.12
2018-09-02T14:51:43.512Z,19.09
2018-09-02T14:54:12.235Z,19.13
2018-09-02T14:56:40.833Z,19.13
2018-09-02T14:59:09.399Z,19.12
2018-09-02T15:01:37.972Z,19.04
2018-09-02T15:04:06.739Z,19.01
2018-09-02T15:06:38.353Z,19.01
2018-09-02T15:09:08.309Z,18.95
2018-09-02T15:11:37.242Z,18.94
2018-09-02T15:14:06.239Z,18.90
2018-09-02T15:16:35.603Z,18.91
2018-09-02T15:19:05.054Z,18.90
2018-09-02T15:21:34.009Z,18.93
2018-09-02T15:24:02.838Z,18.90
2018-09-02T15:26:31.771Z,18.89
2018-09-02T15:29:00.584Z,18.80
2018-09-02T15:31:29.304Z,18.78
2018-09-02T15:33:57.987Z,18.72
2018-09-02T15:36:26.834Z,18.77
2018-09-02T15:38:55.539Z,18.80
2018-09-02T15:41:24.239Z,18.89
2018-09-02T15:43:54.741Z,18.96
2018-09-02T15:46:25.702Z,19.01
2018-09-02T15:48:54.655Z,19.03
2018-09-02T15:51:23.624Z,19.03
2018-09-02T15:53:52.375Z,19.02
2018-09-02T15:56:21.095Z,19.03
2018-09-02T15:58:50.448Z,19.02
2018-09-02T16:01:18.995Z,18.98
2018-09-02T16:03:47.575Z,18.93
2018-09-02T16:06:16.185Z,18.93
2018-09-02T16:08:44.723Z,18.93
2018-09-02T16:11:13.335Z,18.89
2018-09-02T16:13:42.207Z,18.85
2018-09-02T16:16:10.880Z,18.83
2018-09-02T16:21:42.629Z,18.82
2018-09-02T16:24:11.177Z,18.75
2018-09-02T16:26:39.938Z,18.75
2018-09-02T16:29:08.500Z,18.77
2018-09-02T16:31:37.056Z,18.73
2018-09-02T16:34:05.915Z,18.75
2018-09-02T16:36:34.476Z,18.65
2018-09-02T16:39:03.282Z,18.70
2018-09-02T16:41:32.015Z,18.71
2018-09-02T16:44:00.523Z,18.74
2018-09-02T16:46:29.257Z,18.75
2018-09-02T16:48:57.892Z,18.72
2018-09-02T16:51:26.487Z,18.72
2018-09-02T16:53:55.053Z,18.74
2018-09-02T16:56:23.588Z,18.76
2018-09-02T16:58:52.191Z,18.76
2018-09-02T17:01:20.768Z,18.77
2018-09-02T17:04:04.250Z,18.80
2018-09-02T17:06:32.844Z,18.81
2018-09-02T17:09:01.479Z,18.82
2018-09-02T17:11:30.026Z,18.81
2018-09-02T17:13:58.871Z,18.79
2018-09-02T17:16:28.515Z,18.76
2018-09-02T17:19:00.883Z,18.72
2018-09-02T17:21:29.652Z,18.64
2018-09-02T17:23:58.347Z,18.57
2018-09-02T17:26:27.157Z,18.45
2018-09-02T17:28:55.843Z,18.34
2018-09-02T17:31:25.828Z,18.27
2018-09-02T17:33:55.475Z,18.26
2018-09-02T17:36:24.604Z,18.18
2018-09-02T17:38:53.460Z,18.08
2018-09-02T17:41:22.076Z,18.00
2018-09-02T17:43:50.750Z,17.93
2018-09-02T17:46:19.495Z,17.86
2018-09-02T17:48:48.219Z,17.80
2018-09-02T17:51:16.881Z,17.78
2018-09-02T17:53:46.179Z,17.77
2018-09-02T17:56:15.411Z,17.68
2018-09-02T17:58:44.143Z,17.58
2018-09-02T18:01:14.613Z,17.55
2018-09-02T18:03:43.368Z,17.50
2018-09-02T18:06:12.145Z,17.42
2018-09-02T18:08:40.712Z,17.38
2018-09-02T18:11:10.165Z,17.39
2018-09-02T18:13:39.362Z,17.33
2018-09-02T18:16:08.538Z,17.25
2018-09-02T18:18:37.732Z,17.19
2018-09-02T18:21:06.748Z,17.16
2018-09-02T18:23:35.827Z,17.08
2018-09-02T18:26:04.908Z,17.06
2018-09-02T18:28:36.848Z,17.07
2018-09-02T18:31:05.875Z,17.02
2018-09-02T18:33:34.741Z,17.03
2018-09-02T18:36:03.473Z,17.00
2018-09-02T18:38:33.071Z,16.99
2018-09-02T18:41:02.296Z,16.97
2018-09-02T18:43:31.904Z,16.91
2018-09-02T18:46:00.643Z,16.87
2018-09-02T18:48:29.377Z,16.86
2018-09-02T18:50:58.724Z,16.86
2018-09-02T18:53:27.301Z,16.80
2018-09-02T18:55:56.483Z,16.78
2018-09-02T18:58:25.959Z,16.78
2018-09-02T19:00:55.004Z,16.79
2018-09-02T19:03:24.322Z,16.78
2018-09-02T19:05:53.105Z,16.76
2018-09-02T19:08:21.944Z,16.72
2018-09-02T19:10:50.808Z,16.65
2018-09-02T19:13:19.874Z,16.59
2018-09-02T19:15:48.797Z,16.59
2018-09-02T19:18:17.591Z,16.58
2018-09-02T19:20:50.486Z,16.54
2018-09-02T19:23:19.501Z,16.56
2018-09-02T19:25:48.997Z,16.55
2018-09-02T19:28:17.738Z,16.55
2018-09-02T19:30:46.373Z,16.55
2018-09-02T19:33:15.251Z,16.52
2018-09-02T19:35:43.912Z,16.50
2018-09-02T19:38:12.637Z,16.48
2018-09-02T19:40:41.485Z,16.46
2018-09-02T19:43:10.613Z,16.39
2018-09-02T19:45:39.449Z,16.34
2018-09-02T19:48:08.184Z,16.30
2018-09-02T19:50:36.738Z,16.22
2018-09-02T19:53:06.815Z,16.24
2018-09-02T19:55:36.924Z,16.27
2018-09-02T19:58:05.707Z,16.29
2018-09-02T20:00:34.463Z,16.29
2018-09-02T20:03:03.185Z,16.29
2018-09-02T20:05:33.104Z,16.24
2018-09-02T20:08:02.839Z,16.15
2018-09-02T20:10:31.853Z,16.09
2018-09-02T20:13:00.551Z,16.10
2018-09-02T20:15:29.274Z,16.14
2018-09-02T20:17:58.191Z,16.17
2018-09-02T20:20:27.239Z,16.20
2018-09-02T20:22:56.124Z,16.20
2018-09-02T20:25:24.699Z,16.19
2018-09-02T20:27:53.262Z,16.15
2018-09-02T20:30:22.205Z,16.17
2018-09-02T20:32:50.908Z,16.15
2018-09-02T20:35:19.721Z,16.15
2018-09-02T20:37:48.439Z,16.06
2018-09-02T20:40:17.166Z,15.97
2018-09-02T20:42:45.945Z,15.95
2018-09-02T20:45:15.079Z,15.93
2018-09-02T20:47:43.947Z,16.02
2018-09-02T20:50:12.664Z,16.06
2018-09-02T20:52:41.588Z,16.09
2018-09-02T20:55:10.559Z,16.11
2018-09-02T20:57:39.127Z,16.09
2018-09-02T21:00:08.671Z,16.00
2018-09-02T21:02:37.609Z,16.01
2018-09-02T21:05:06.434Z,16.04
2018-09-02T21:07:35.879Z,16.04
2018-09-02T21:10:05.695Z,16.02
2018-09-02T21:12:34.293Z,16.01
2018-09-02T21:15:03.017Z,16.01
2018-09-02T21:17:31.914Z,15.98
2018-09-02T21:20:00.640Z,15.92
2018-09-02T21:22:29.946Z,15.89
2018-09-02T21:24:59.576Z,15.92
2018-09-02T21:27:28.879Z,15.98
2018-09-02T21:29:57.743Z,16.01
2018-09-02T21:32:26.482Z,16.01
2018-09-02T21:34:55.115Z,16.01
2018-09-02T21:37:23.799Z,16.00
2018-09-02T21:39:52.495Z,15.97
2018-09-02T21:42:21.168Z,15.93
2018-09-02T21:44:49.854Z,15.95
2018-09-02T21:47:19.244Z,15.97
2018-09-02T21:49:47.903Z,15.93
2018-09-02T21:52:16.477Z,15.91
2018-09-02T21:54:45.407Z,15.89
2018-09-02T21:57:14.442Z,15.93
2018-09-02T21:59:42.991Z,15.98
2018-09-02T22:02:11.763Z,16.00
2018-09-02T22:04:40.292Z,15.99
2018-09-02T22:07:09.077Z,15.97
2018-09-02T22:09:38.714Z,15.88
2018-09-02T22:12:07.772Z,15.91
2018-09-02T22:14:36.564Z,15.96
2018-09-02T22:17:06.400Z,15.97
2018-09-02T22:25:40.512Z,15.95
2018-09-02T22:28:09.302Z,15.96
2018-09-02T22:30:38.045Z,15.98
2018-09-02T22:33:06.938Z,15.97
2018-09-02T22:35:35.606Z,15.95
2018-09-02T22:38:04.580Z,15.91
2018-09-02T22:40:33.172Z,15.88
2018-09-02T22:43:02.028Z,15.87
2018-09-02T22:45:30.985Z,15.85
2018-09-02T22:47:59.793Z,15.93
2018-09-02T22:50:29.220Z,15.93
2018-09-02T22:52:57.839Z,15.94
2018-09-02T22:55:26.804Z,15.96
2018-09-02T22:57:55.408Z,15.95
2018-09-02T23:00:24.191Z,15.99
2018-09-02T23:02:53.104Z,16.03
2018-09-02T23:05:21.776Z,16.08
2018-09-02T23:07:50.544Z,16.14
2018-09-02T23:10:19.240Z,16.23
2018-09-02T23:12:47.986Z,16.31
2018-09-02T23:15:16.630Z,16.35
2018-09-02T23:17:45.294Z,16.35
2018-09-02T23:20:14.024Z,16.38
2018-09-02T23:22:42.700Z,16.41
2018-09-02T23:25:11.397Z,16.41
2018-09-02T23:27:40.016Z,16.45
2018-09-02T23:30:08.720Z,16.47
2018-09-02T23:32:37.400Z,16.48
2018-09-02T23:35:06.225Z,16.45
2018-09-02T23:37:36.067Z,16.43
2018-09-02T23:40:04.907Z,16.44
2018-09-02T23:42:34.189Z,16.45
2018-09-02T23:45:03.125Z,16.49
2018-09-02T23:47:31.916Z,16.55
2018-09-02T23:50:01.371Z,16.53
2018-09-02T23:52:30.195Z,16.54
2018-09-02T23:54:59.746Z,16.50
2018-09-02T23:57:28.301Z,16.48
2018-09-02T23:59:57.652Z,16.47
